sensor_id;sensor_type;location;lat;lon;timestamp;P1;durP1;ratioP1;P2;durP2;ratioP2
35074;SDS011;21260;34.984;32.490;2022-08-21T00:00:24;5.22;;;3.92;;
35074;SDS011;21260;34.984;32.490;2022-08-21T00:02:54;4.35;;;3.60;;
35074;SDS011;21260;34.984;32.490;2022-08-21T00:05:26;7.15;;;3.60;;
35074;SDS011;21260;34.984;32.490;2022-08-21T00:08:01;6.88;;;3.78;;
35074;SDS011;21260;34.984;32.490;2022-08-21T00:10:28;5.53;;;3.60;;
35074;SDS011;21260;34.984;32.490;2022-08-21T00:12:55;8.70;;;3.65;;
35074;SDS011;21260;34.984;32.490;2022-08-21T00:15:24;5.38;;;3.40;;
35074;SDS011;21260;34.984;32.490;2022-08-21T00:17:54;4.25;;;3.60;;
35074;SDS011;21260;34.984;32.490;2022-08-21T00:20:21;4.75;;;3.33;;
35074;SDS011;21260;34.984;32.490;2022-08-21T00:22:49;7.68;;;3.75;;
35074;SDS011;21260;34.984;32.490;2022-08-21T00:25:17;3.63;;;3.28;;
35074;SDS011;21260;34.984;32.490;2022-08-21T00:27:44;5.20;;;3.42;;
35074;SDS011;21260;34.984;32.490;2022-08-21T00:30:16;7.53;;;3.88;;
35074;SDS011;21260;34.984;32.490;2022-08-21T00:32:44;5.53;;;3.60;;
35074;SDS011;21260;34.984;32.490;2022-08-21T00:35:13;6.72;;;3.70;;
35074;SDS011;21260;34.984;32.490;2022-08-21T00:37:42;5.53;;;3.67;;
35074;SDS011;21260;34.984;32.490;2022-08-21T00:40:10;7.22;;;3.50;;
35074;SDS011;21260;34.984;32.490;2022-08-21T00:42:41;3.50;;;3.20;;
35074;SDS011;21260;34.984;32.490;2022-08-21T00:45:09;4.18;;;3.63;;
35074;SDS011;21260;34.984;32.490;2022-08-21T00:47:37;5.38;;;3.60;;
35074;SDS011;21260;34.984;32.490;2022-08-21T00:50:05;6.65;;;3.78;;
35074;SDS011;21260;34.984;32.490;2022-08-21T00:52:35;4.20;;;3.22;;
35074;SDS011;21260;34.984;32.490;2022-08-21T00:55:05;5.72;;;3.30;;
35074;SDS011;21260;34.984;32.490;2022-08-21T00:57:38;5.10;;;3.45;;
35074;SDS011;21260;34.984;32.490;2022-08-21T01:00:24;5.22;;;3.40;;
35074;SDS011;21260;34.984;32.490;2022-08-21T01:03:06;4.32;;;3.25;;
35074;SDS011;21260;34.984;32.490;2022-08-21T01:05:38;8.80;;;3.63;;
35074;SDS011;21260;34.984;32.490;2022-08-21T01:08:06;7.75;;;3.17;;
35074;SDS011;21260;34.984;32.490;2022-08-21T01:10:35;6.60;;;3.38;;
35074;SDS011;21260;34.984;32.490;2022-08-21T01:13:03;4.25;;;3.40;;
35074;SDS011;21260;34.984;32.490;2022-08-21T01:15:34;4.93;;;3.03;;
35074;SDS011;21260;34.984;32.490;2022-08-21T01:18:08;5.40;;;3.60;;
35074;SDS011;21260;34.984;32.490;2022-08-21T01:20:36;5.85;;;3.35;;
35074;SDS011;21260;34.984;32.490;2022-08-21T01:23:06;3.67;;;3.17;;
35074;SDS011;21260;34.984;32.490;2022-08-21T01:25:33;3.72;;;3.20;;
35074;SDS011;21260;34.984;32.490;2022-08-21T01:28:02;5.63;;;3.10;;
35074;SDS011;21260;34.984;32.490;2022-08-21T01:30:37;5.25;;;3.30;;
35074;SDS011;21260;34.984;32.490;2022-08-21T01:33:05;4.50;;;3.38;;
35074;SDS011;21260;34.984;32.490;2022-08-21T01:35:32;4.10;;;3.40;;
35074;SDS011;21260;34.984;32.490;2022-08-21T01:37:58;6.18;;;3.45;;
35074;SDS011;21260;34.984;32.490;2022-08-21T01:40:25;7.57;;;3.30;;
35074;SDS011;21260;34.984;32.490;2022-08-21T01:42:52;5.63;;;3.60;;
35074;SDS011;21260;34.984;32.490;2022-08-21T01:45:18;4.18;;;3.25;;
35074;SDS011;21260;34.984;32.490;2022-08-21T01:47:45;3.35;;;2.97;;
35074;SDS011;21260;34.984;32.490;2022-08-21T01:50:13;4.72;;;3.33;;
35074;SDS011;21260;34.984;32.490;2022-08-21T01:52:43;7.15;;;3.28;;
35074;SDS011;21260;34.984;32.490;2022-08-21T01:55:10;5.75;;;3.72;;
35074;SDS011;21260;34.984;32.490;2022-08-21T01:57:41;7.50;;;3.50;;
35074;SDS011;21260;34.984;32.490;2022-08-21T02:00:09;5.53;;;4.00;;
35074;SDS011;21260;34.984;32.490;2022-08-21T02:02:40;6.72;;;3.63;;
35074;SDS011;21260;34.984;32.490;2022-08-21T02:05:07;4.57;;;3.40;;
35074;SDS011;21260;34.984;32.490;2022-08-21T02:07:46;3.80;;;3.40;;
35074;SDS011;21260;34.984;32.490;2022-08-21T02:10:21;4.63;;;3.55;;
35074;SDS011;21260;34.984;32.490;2022-08-21T02:12:52;10.02;;;3.47;;
35074;SDS011;21260;34.984;32.490;2022-08-21T02:15:20;6.30;;;3.28;;
35074;SDS011;21260;34.984;32.490;2022-08-21T02:17:50;6.72;;;3.90;;
35074;SDS011;21260;34.984;32.490;2022-08-21T02:20:44;5.68;;;3.30;;
35074;SDS011;21260;34.984;32.490;2022-08-21T02:23:13;6.55;;;3.35;;
35074;SDS011;21260;34.984;32.490;2022-08-21T02:25:40;3.60;;;3.30;;
35074;SDS011;21260;34.984;32.490;2022-08-21T02:28:10;6.03;;;3.50;;
35074;SDS011;21260;34.984;32.490;2022-08-21T02:30:40;6.47;;;3.55;;
35074;SDS011;21260;34.984;32.490;2022-08-21T02:33:12;4.78;;;3.55;;
35074;SDS011;21260;34.984;32.490;2022-08-21T02:35:40;5.82;;;3.90;;
35074;SDS011;21260;34.984;32.490;2022-08-21T02:38:09;7.65;;;3.80;;
35074;SDS011;21260;34.984;32.490;2022-08-21T02:40:40;5.45;;;3.70;;
35074;SDS011;21260;34.984;32.490;2022-08-21T02:43:10;4.72;;;3.53;;
35074;SDS011;21260;34.984;32.490;2022-08-21T02:45:37;4.03;;;3.45;;
35074;SDS011;21260;34.984;32.490;2022-08-21T02:48:08;4.85;;;3.50;;
35074;SDS011;21260;34.984;32.490;2022-08-21T02:50:40;4.90;;;3.33;;
35074;SDS011;21260;34.984;32.490;2022-08-21T02:53:13;7.25;;;3.45;;
35074;SDS011;21260;34.984;32.490;2022-08-21T02:55:45;4.93;;;3.75;;
35074;SDS011;21260;34.984;32.490;2022-08-21T02:58:15;6.05;;;3.92;;
35074;SDS011;21260;34.984;32.490;2022-08-21T03:00:50;4.07;;;3.55;;
35074;SDS011;21260;34.984;32.490;2022-08-21T03:03:16;5.53;;;3.70;;
35074;SDS011;21260;34.984;32.490;2022-08-21T03:05:43;4.78;;;4.00;;
35074;SDS011;21260;34.984;32.490;2022-08-21T03:08:10;5.38;;;3.83;;
35074;SDS011;21260;34.984;32.490;2022-08-21T03:10:44;5.00;;;3.67;;
35074;SDS011;21260;34.984;32.490;2022-08-21T03:13:14;6.22;;;3.63;;
35074;SDS011;21260;34.984;32.490;2022-08-21T03:15:42;4.68;;;3.70;;
35074;SDS011;21260;34.984;32.490;2022-08-21T03:18:09;7.75;;;3.55;;
35074;SDS011;21260;34.984;32.490;2022-08-21T03:20:37;5.13;;;3.92;;
35074;SDS011;21260;34.984;32.490;2022-08-21T03:23:06;9.18;;;4.22;;
35074;SDS011;21260;34.984;32.490;2022-08-21T03:25:34;5.78;;;3.90;;
35074;SDS011;21260;34.984;32.490;2022-08-21T03:28:02;3.78;;;3.47;;
35074;SDS011;21260;34.984;32.490;2022-08-21T03:30:34;4.03;;;3.63;;
35074;SDS011;21260;34.984;32.490;2022-08-21T03:33:01;6.15;;;3.40;;
35074;SDS011;21260;34.984;32.490;2022-08-21T03:35:28;6.28;;;3.33;;
35074;SDS011;21260;34.984;32.490;2022-08-21T03:37:55;5.38;;;3.45;;
35074;SDS011;21260;34.984;32.490;2022-08-21T03:40:24;6.78;;;3.67;;
35074;SDS011;21260;34.984;32.490;2022-08-21T03:42:51;4.80;;;3.42;;
35074;SDS011;21260;34.984;32.490;2022-08-21T03:45:18;6.00;;;3.92;;
35074;SDS011;21260;34.984;32.490;2022-08-21T03:47:52;5.15;;;3.50;;
35074;SDS011;21260;34.984;32.490;2022-08-21T03:50:25;6.70;;;3.38;;
35074;SDS011;21260;34.984;32.490;2022-08-21T03:52:56;4.40;;;4.00;;
35074;SDS011;21260;34.984;32.490;2022-08-21T03:55:24;5.18;;;3.63;;
35074;SDS011;21260;34.984;32.490;2022-08-21T03:57:52;6.10;;;3.70;;
35074;SDS011;21260;34.984;32.490;2022-08-21T04:00:19;5.53;;;3.97;;
35074;SDS011;21260;34.984;32.490;2022-08-21T04:02:47;6.32;;;3.85;;
35074;SDS011;21260;34.984;32.490;2022-08-21T04:05:14;6.40;;;3.90;;
35074;SDS011;21260;34.984;32.490;2022-08-21T04:08:01;8.23;;;3.85;;
35074;SDS011;21260;34.984;32.490;2022-08-21T04:10:31;8.43;;;3.67;;
35074;SDS011;21260;34.984;32.490;2022-08-21T04:13:00;8.02;;;4.10;;
35074;SDS011;21260;34.984;32.490;2022-08-21T04:15:27;7.40;;;4.10;;
35074;SDS011;21260;34.984;32.490;2022-08-21T04:17:54;6.97;;;4.20;;
35074;SDS011;21260;34.984;32.490;2022-08-21T04:20:21;5.85;;;4.20;;
35074;SDS011;21260;34.984;32.490;2022-08-21T04:22:49;8.02;;;4.20;;
35074;SDS011;21260;34.984;32.490;2022-08-21T04:25:17;5.60;;;4.30;;
35074;SDS011;21260;34.984;32.490;2022-08-21T04:27:46;5.15;;;3.83;;
35074;SDS011;21260;34.984;32.490;2022-08-21T04:30:13;6.10;;;4.20;;
35074;SDS011;21260;34.984;32.490;2022-08-21T04:32:48;6.68;;;4.07;;
35074;SDS011;21260;34.984;32.490;2022-08-21T04:35:16;5.80;;;3.97;;
35074;SDS011;21260;34.984;32.490;2022-08-21T04:37:48;6.07;;;4.30;;
35074;SDS011;21260;34.984;32.490;2022-08-21T04:40:16;6.00;;;4.45;;
35074;SDS011;21260;34.984;32.490;2022-08-21T04:42:54;5.82;;;4.47;;
35074;SDS011;21260;34.984;32.490;2022-08-21T04:45:28;9.80;;;4.45;;
35074;SDS011;21260;34.984;32.490;2022-08-21T04:48:08;6.60;;;4.33;;
35074;SDS011;21260;34.984;32.490;2022-08-21T04:53:31;5.28;;;4.18;;
35074;SDS011;21260;34.984;32.490;2022-08-21T04:56:09;5.95;;;4.20;;
35074;SDS011;21260;34.984;32.490;2022-08-21T04:58:43;8.45;;;4.65;;
35074;SDS011;21260;34.984;32.490;2022-08-21T05:01:11;8.10;;;4.70;;
35074;SDS011;21260;34.984;32.490;2022-08-21T05:03:49;7.05;;;4.85;;
35074;SDS011;21260;34.984;32.490;2022-08-21T05:06:22;6.60;;;4.50;;
35074;SDS011;21260;34.984;32.490;2022-08-21T05:08:50;7.38;;;4.75;;
35074;SDS011;21260;34.984;32.490;2022-08-21T05:11:20;7.13;;;4.60;;
35074;SDS011;21260;34.984;32.490;2022-08-21T05:13:48;6.65;;;5.13;;
35074;SDS011;21260;34.984;32.490;2022-08-21T05:16:15;10.25;;;5.15;;
35074;SDS011;21260;34.984;32.490;2022-08-21T05:18:42;8.57;;;4.60;;
35074;SDS011;21260;34.984;32.490;2022-08-21T05:21:08;7.10;;;5.13;;
35074;SDS011;21260;34.984;32.490;2022-08-21T05:23:36;5.22;;;4.57;;
35074;SDS011;21260;34.984;32.490;2022-08-21T05:26:02;5.65;;;4.30;;
35074;SDS011;21260;34.984;32.490;2022-08-21T05:28:30;9.38;;;4.82;;
35074;SDS011;21260;34.984;32.490;2022-08-21T05:30:57;4.95;;;4.28;;
35074;SDS011;21260;34.984;32.490;2022-08-21T05:33:23;6.75;;;4.28;;
35074;SDS011;21260;34.984;32.490;2022-08-21T05:35:51;5.28;;;4.28;;
35074;SDS011;21260;34.984;32.490;2022-08-21T05:38:22;5.97;;;4.47;;
35074;SDS011;21260;34.984;32.490;2022-08-21T05:40:52;4.78;;;4.35;;
35074;SDS011;21260;34.984;32.490;2022-08-21T05:43:19;11.15;;;4.80;;
35074;SDS011;21260;34.984;32.490;2022-08-21T05:45:46;7.72;;;4.32;;
35074;SDS011;21260;34.984;32.490;2022-08-21T05:48:15;7.35;;;4.80;;
35074;SDS011;21260;34.984;32.490;2022-08-21T05:50:45;5.43;;;4.10;;
35074;SDS011;21260;34.984;32.490;2022-08-21T05:53:15;5.28;;;4.30;;
35074;SDS011;21260;34.984;32.490;2022-08-21T05:55:43;4.65;;;4.05;;
35074;SDS011;21260;34.984;32.490;2022-08-21T05:58:12;6.75;;;4.30;;
35074;SDS011;21260;34.984;32.490;2022-08-21T06:00:41;12.13;;;4.18;;
35074;SDS011;21260;34.984;32.490;2022-08-21T06:03:20;4.85;;;4.35;;
35074;SDS011;21260;34.984;32.490;2022-08-21T06:05:53;6.60;;;4.65;;
35074;SDS011;21260;34.984;32.490;2022-08-21T06:08:21;5.28;;;4.30;;
35074;SDS011;21260;34.984;32.490;2022-08-21T06:10:51;11.18;;;4.63;;
35074;SDS011;21260;34.984;32.490;2022-08-21T06:13:29;8.05;;;4.15;;
35074;SDS011;21260;34.984;32.490;2022-08-21T06:18:37;7.20;;;4.75;;
35074;SDS011;21260;34.984;32.490;2022-08-21T06:21:05;5.30;;;4.22;;
35074;SDS011;21260;34.984;32.490;2022-08-21T06:23:33;6.25;;;4.50;;
35074;SDS011;21260;34.984;32.490;2022-08-21T06:26:00;9.63;;;4.95;;
35074;SDS011;21260;34.984;32.490;2022-08-21T06:28:29;9.15;;;5.07;;
35074;SDS011;21260;34.984;32.490;2022-08-21T06:30:57;10.25;;;4.63;;
35074;SDS011;21260;34.984;32.490;2022-08-21T06:33:24;7.82;;;5.00;;
35074;SDS011;21260;34.984;32.490;2022-08-21T06:35:51;6.78;;;4.90;;
35074;SDS011;21260;34.984;32.490;2022-08-21T06:38:17;8.95;;;5.13;;
35074;SDS011;21260;34.984;32.490;2022-08-21T06:40:45;7.55;;;4.82;;
35074;SDS011;21260;34.984;32.490;2022-08-21T06:43:12;6.10;;;4.57;;
35074;SDS011;21260;34.984;32.490;2022-08-21T06:45:42;10.95;;;4.90;;
35074;SDS011;21260;34.984;32.490;2022-08-21T06:48:09;5.50;;;4.50;;
35074;SDS011;21260;34.984;32.490;2022-08-21T06:50:35;6.70;;;5.15;;
35074;SDS011;21260;34.984;32.490;2022-08-21T06:53:08;8.45;;;5.32;;
35074;SDS011;21260;34.984;32.490;2022-08-21T06:55:41;9.32;;;5.50;;
35074;SDS011;21260;34.984;32.490;2022-08-21T06:58:08;12.10;;;5.22;;
35074;SDS011;21260;34.984;32.490;2022-08-21T07:00:40;8.18;;;4.65;;
35074;SDS011;21260;34.984;32.490;2022-08-21T07:03:21;6.47;;;4.63;;
35074;SDS011;21260;34.984;32.490;2022-08-21T07:05:52;8.35;;;4.80;;
35074;SDS011;21260;34.984;32.490;2022-08-21T07:08:20;12.75;;;4.85;;
35074;SDS011;21260;34.984;32.490;2022-08-21T07:10:47;9.95;;;5.20;;
35074;SDS011;21260;34.984;32.490;2022-08-21T07:13:14;7.55;;;4.22;;
35074;SDS011;21260;34.984;32.490;2022-08-21T07:15:44;8.57;;;4.55;;
35074;SDS011;21260;34.984;32.490;2022-08-21T07:18:11;9.52;;;5.25;;
35074;SDS011;21260;34.984;32.490;2022-08-21T07:20:38;6.43;;;4.63;;
35074;SDS011;21260;34.984;32.490;2022-08-21T07:23:07;6.60;;;5.03;;
35074;SDS011;21260;34.984;32.490;2022-08-21T07:25:41;8.88;;;4.60;;
35074;SDS011;21260;34.984;32.490;2022-08-21T07:28:07;6.78;;;5.10;;
35074;SDS011;21260;34.984;32.490;2022-08-21T07:30:34;10.63;;;5.32;;
35074;SDS011;21260;34.984;32.490;2022-08-21T07:33:07;9.68;;;4.80;;
35074;SDS011;21260;34.984;32.490;2022-08-21T07:35:35;10.02;;;4.90;;
35074;SDS011;21260;34.984;32.490;2022-08-21T07:38:07;8.02;;;5.10;;
35074;SDS011;21260;34.984;32.490;2022-08-21T07:40:34;13.70;;;5.75;;
35074;SDS011;21260;34.984;32.490;2022-08-21T07:43:01;10.90;;;5.93;;
35074;SDS011;21260;34.984;32.490;2022-08-21T07:45:28;13.00;;;5.97;;
35074;SDS011;21260;34.984;32.490;2022-08-21T07:47:54;13.73;;;6.18;;
35074;SDS011;21260;34.984;32.490;2022-08-21T07:50:21;6.93;;;5.40;;
35074;SDS011;21260;34.984;32.490;2022-08-21T07:52:49;8.02;;;5.93;;
35074;SDS011;21260;34.984;32.490;2022-08-21T07:55:18;9.10;;;5.90;;
35074;SDS011;21260;34.984;32.490;2022-08-21T07:57:48;14.95;;;6.38;;
35074;SDS011;21260;34.984;32.490;2022-08-21T08:00:16;11.43;;;6.15;;
35074;SDS011;21260;34.984;32.490;2022-08-21T08:02:49;8.02;;;5.45;;
35074;SDS011;21260;34.984;32.490;2022-08-21T08:05:21;12.30;;;5.82;;
35074;SDS011;21260;34.984;32.490;2022-08-21T08:07:51;11.50;;;6.00;;
35074;SDS011;21260;34.984;32.490;2022-08-21T08:10:18;9.63;;;6.32;;
35074;SDS011;21260;34.984;32.490;2022-08-21T08:12:45;11.48;;;6.10;;
35074;SDS011;21260;34.984;32.490;2022-08-21T08:15:14;13.35;;;7.50;;
35074;SDS011;21260;34.984;32.490;2022-08-21T08:17:46;10.00;;;6.65;;
35074;SDS011;21260;34.984;32.490;2022-08-21T08:20:13;16.15;;;6.45;;
35074;SDS011;21260;34.984;32.490;2022-08-21T08:22:43;13.60;;;6.50;;
35074;SDS011;21260;34.984;32.490;2022-08-21T08:25:11;17.15;;;6.57;;
35074;SDS011;21260;34.984;32.490;2022-08-21T08:27:40;10.52;;;6.60;;
35074;SDS011;21260;34.984;32.490;2022-08-21T08:30:08;14.80;;;7.22;;
35074;SDS011;21260;34.984;32.490;2022-08-21T08:32:39;10.57;;;6.60;;
35074;SDS011;21260;34.984;32.490;2022-08-21T08:35:06;7.75;;;6.57;;
35074;SDS011;21260;34.984;32.490;2022-08-21T08:37:34;14.48;;;6.88;;
35074;SDS011;21260;34.984;32.490;2022-08-21T08:40:06;13.75;;;7.22;;
35074;SDS011;21260;34.984;32.490;2022-08-21T08:42:43;12.02;;;6.85;;
35074;SDS011;21260;34.984;32.490;2022-08-21T08:45:13;10.90;;;7.03;;
35074;SDS011;21260;34.984;32.490;2022-08-21T08:47:47;10.95;;;7.10;;
35074;SDS011;21260;34.984;32.490;2022-08-21T08:55:58;10.23;;;7.18;;
35074;SDS011;21260;34.984;32.490;2022-08-21T08:58:33;10.90;;;6.95;;
35074;SDS011;21260;34.984;32.490;2022-08-21T09:01:06;12.65;;;7.53;;
35074;SDS011;21260;34.984;32.490;2022-08-21T09:03:43;10.43;;;6.97;;
35074;SDS011;21260;34.984;32.490;2022-08-21T09:08:56;13.55;;;7.35;;
35074;SDS011;21260;34.984;32.490;2022-08-21T09:17:03;11.93;;;7.20;;
35074;SDS011;21260;34.984;32.490;2022-08-21T09:23:00;15.27;;;7.03;;
35074;SDS011;21260;34.984;32.490;2022-08-21T09:25:54;12.52;;;6.95;;
35074;SDS011;21260;34.984;32.490;2022-08-21T09:28:37;13.77;;;7.40;;
35074;SDS011;21260;34.984;32.490;2022-08-21T09:31:07;10.70;;;7.40;;
35074;SDS011;21260;34.984;32.490;2022-08-21T09:33:46;10.25;;;6.88;;
35074;SDS011;21260;34.984;32.490;2022-08-21T09:36:12;13.80;;;7.03;;
35074;SDS011;21260;34.984;32.490;2022-08-21T09:39:03;15.43;;;7.22;;
35074;SDS011;21260;34.984;32.490;2022-08-21T09:41:31;10.60;;;6.95;;
35074;SDS011;21260;34.984;32.490;2022-08-21T09:44:04;14.10;;;7.53;;
35074;SDS011;21260;34.984;32.490;2022-08-21T09:46:33;18.80;;;7.07;;
35074;SDS011;21260;34.984;32.490;2022-08-21T09:49:02;15.05;;;7.68;;
35074;SDS011;21260;34.984;32.490;2022-08-21T09:51:30;11.95;;;8.00;;
35074;SDS011;21260;34.984;32.490;2022-08-21T09:56:37;12.93;;;7.90;;
35074;SDS011;21260;34.984;32.490;2022-08-21T09:59:42;15.27;;;7.45;;
35074;SDS011;21260;34.984;32.490;2022-08-21T10:02:21;13.23;;;7.90;;
35074;SDS011;21260;34.984;32.490;2022-08-21T10:04:55;14.07;;;7.80;;
35074;SDS011;21260;34.984;32.490;2022-08-21T10:07:28;15.00;;;7.90;;
35074;SDS011;21260;34.984;32.490;2022-08-21T10:10:05;10.80;;;7.20;;
35074;SDS011;21260;34.984;32.490;2022-08-21T10:28:56;14.05;;;8.00;;
35074;SDS011;21260;34.984;32.490;2022-08-21T10:32:12;11.27;;;7.47;;
35074;SDS011;21260;34.984;32.490;2022-08-21T10:35:14;13.27;;;8.02;;
35074;SDS011;21260;34.984;32.490;2022-08-21T10:46:37;12.43;;;7.22;;
35074;SDS011;21260;34.984;32.490;2022-08-21T10:49:31;11.02;;;7.05;;
35074;SDS011;21260;34.984;32.490;2022-08-21T10:55:16;13.07;;;7.97;;
35074;SDS011;21260;34.984;32.490;2022-08-21T10:57:59;14.38;;;7.25;;
35074;SDS011;21260;34.984;32.490;2022-08-21T11:00:43;12.27;;;6.80;;
35074;SDS011;21260;34.984;32.490;2022-08-21T11:03:17;14.82;;;7.28;;
35074;SDS011;21260;34.984;32.490;2022-08-21T11:06:02;10.00;;;7.45;;
35074;SDS011;21260;34.984;32.490;2022-08-21T11:08:44;15.27;;;7.80;;
35074;SDS011;21260;34.984;32.490;2022-08-21T11:11:22;16.50;;;7.93;;
35074;SDS011;21260;34.984;32.490;2022-08-21T11:14:04;12.38;;;7.30;;
35074;SDS011;21260;34.984;32.490;2022-08-21T11:17:11;14.45;;;7.45;;
35074;SDS011;21260;34.984;32.490;2022-08-21T11:19:53;15.88;;;6.90;;
35074;SDS011;21260;34.984;32.490;2022-08-21T11:36:31;10.18;;;5.35;;
35074;SDS011;21260;34.984;32.490;2022-08-21T11:39:17;8.07;;;5.10;;
35074;SDS011;21260;34.984;32.490;2022-08-21T11:42:50;11.15;;;5.53;;
35074;SDS011;21260;34.984;32.490;2022-08-21T11:48:23;7.50;;;4.60;;
35074;SDS011;21260;34.984;32.490;2022-08-21T11:51:29;7.15;;;4.53;;
35074;SDS011;21260;34.984;32.490;2022-08-21T12:00:28;10.70;;;5.32;;
35074;SDS011;21260;34.984;32.490;2022-08-21T12:03:09;11.65;;;5.10;;
35074;SDS011;21260;34.984;32.490;2022-08-21T12:06:05;6.25;;;4.13;;
35074;SDS011;21260;34.984;32.490;2022-08-21T12:08:40;8.77;;;4.90;;
35074;SDS011;21260;34.984;32.490;2022-08-21T12:16:35;7.38;;;4.80;;
35074;SDS011;21260;34.984;32.490;2022-08-21T12:19:14;6.88;;;4.47;;
35074;SDS011;21260;34.984;32.490;2022-08-21T12:24:41;6.72;;;4.40;;
35074;SDS011;21260;34.984;32.490;2022-08-21T12:27:18;8.90;;;4.30;;
35074;SDS011;21260;34.984;32.490;2022-08-21T12:29:59;6.57;;;4.35;;
35074;SDS011;21260;34.984;32.490;2022-08-21T12:35:20;5.85;;;4.50;;
35074;SDS011;21260;34.984;32.490;2022-08-21T12:37:56;7.82;;;4.80;;
35074;SDS011;21260;34.984;32.490;2022-08-21T12:41:14;7.68;;;4.90;;
35074;SDS011;21260;34.984;32.490;2022-08-21T12:43:47;7.25;;;4.80;;
35074;SDS011;21260;34.984;32.490;2022-08-21T12:46:46;14.10;;;5.07;;
35074;SDS011;21260;34.984;32.490;2022-08-21T12:50:11;13.82;;;4.85;;
35074;SDS011;21260;34.984;32.490;2022-08-21T12:52:36;13.48;;;5.28;;
35074;SDS011;21260;34.984;32.490;2022-08-21T12:55:15;7.20;;;4.55;;
35074;SDS011;21260;34.984;32.490;2022-08-21T12:57:55;8.40;;;4.57;;
35074;SDS011;21260;34.984;32.490;2022-08-21T13:00:23;7.22;;;4.50;;
35074;SDS011;21260;34.984;32.490;2022-08-21T13:02:54;10.63;;;4.65;;
35074;SDS011;21260;34.984;32.490;2022-08-21T13:08:04;9.38;;;4.93;;
35074;SDS011;21260;34.984;32.490;2022-08-21T13:10:35;7.03;;;5.30;;
35074;SDS011;21260;34.984;32.490;2022-08-21T13:13:05;7.65;;;4.88;;
35074;SDS011;21260;34.984;32.490;2022-08-21T13:15:39;11.48;;;4.97;;
35074;SDS011;21260;34.984;32.490;2022-08-21T13:18:07;8.52;;;4.45;;
35074;SDS011;21260;34.984;32.490;2022-08-21T13:20:44;7.20;;;4.70;;
35074;SDS011;21260;34.984;32.490;2022-08-21T13:23:26;10.30;;;4.75;;
35074;SDS011;21260;34.984;32.490;2022-08-21T13:25:55;7.63;;;4.43;;
35074;SDS011;21260;34.984;32.490;2022-08-21T13:28:23;8.93;;;5.03;;
35074;SDS011;21260;34.984;32.490;2022-08-21T13:30:58;12.68;;;4.90;;
35074;SDS011;21260;34.984;32.490;2022-08-21T13:33:26;5.53;;;4.10;;
35074;SDS011;21260;34.984;32.490;2022-08-21T13:38:40;5.88;;;4.25;;
35074;SDS011;21260;34.984;32.490;2022-08-21T13:43:45;9.23;;;4.80;;
35074;SDS011;21260;34.984;32.490;2022-08-21T13:46:18;7.85;;;4.78;;
35074;SDS011;21260;34.984;32.490;2022-08-21T13:48:49;7.40;;;4.20;;
35074;SDS011;21260;34.984;32.490;2022-08-21T13:51:17;9.30;;;4.93;;
35074;SDS011;21260;34.984;32.490;2022-08-21T13:53:45;12.70;;;5.18;;
35074;SDS011;21260;34.984;32.490;2022-08-21T13:56:21;10.68;;;4.53;;
35074;SDS011;21260;34.984;32.490;2022-08-21T13:59:07;8.50;;;4.90;;
35074;SDS011;21260;34.984;32.490;2022-08-21T14:04:51;10.52;;;4.25;;
35074;SDS011;21260;34.984;32.490;2022-08-21T14:07:24;8.05;;;4.30;;
35074;SDS011;21260;34.984;32.490;2022-08-21T14:10:00;7.88;;;4.28;;
35074;SDS011;21260;34.984;32.490;2022-08-21T14:12:42;9.30;;;4.20;;
35074;SDS011;21260;34.984;32.490;2022-08-21T14:15:25;7.40;;;4.53;;
35074;SDS011;21260;34.984;32.490;2022-08-21T14:18:05;6.25;;;4.30;;
35074;SDS011;21260;34.984;32.490;2022-08-21T14:20:40;9.25;;;4.60;;
35074;SDS011;21260;34.984;32.490;2022-08-21T14:23:07;8.35;;;4.60;;
35074;SDS011;21260;34.984;32.490;2022-08-21T14:25:42;10.77;;;4.68;;
35074;SDS011;21260;34.984;32.490;2022-08-21T14:30:53;9.07;;;4.68;;
35074;SDS011;21260;34.984;32.490;2022-08-21T14:33:26;7.28;;;4.20;;
35074;SDS011;21260;34.984;32.490;2022-08-21T14:35:58;6.00;;;4.10;;
35074;SDS011;21260;34.984;32.490;2022-08-21T14:38:27;6.10;;;4.38;;
35074;SDS011;21260;34.984;32.490;2022-08-21T14:40:56;12.27;;;4.78;;
35074;SDS011;21260;34.984;32.490;2022-08-21T14:43:29;10.40;;;4.13;;
35074;SDS011;21260;34.984;32.490;2022-08-21T14:45:56;7.72;;;4.20;;
35074;SDS011;21260;34.984;32.490;2022-08-21T14:48:23;10.20;;;4.25;;
35074;SDS011;21260;34.984;32.490;2022-08-21T14:50:49;6.15;;;3.53;;
35074;SDS011;21260;34.984;32.490;2022-08-21T14:53:17;7.50;;;3.90;;
35074;SDS011;21260;34.984;32.490;2022-08-21T14:55:43;11.98;;;3.88;;
35074;SDS011;21260;34.984;32.490;2022-08-21T14:58:28;7.97;;;3.85;;
35074;SDS011;21260;34.984;32.490;2022-08-21T15:00:55;7.80;;;4.40;;
35074;SDS011;21260;34.984;32.490;2022-08-21T15:03:23;4.25;;;3.63;;
35074;SDS011;21260;34.984;32.490;2022-08-21T15:05:51;6.57;;;3.97;;
35074;SDS011;21260;34.984;32.490;2022-08-21T15:08:17;5.55;;;4.00;;
35074;SDS011;21260;34.984;32.490;2022-08-21T15:10:44;7.43;;;4.65;;
35074;SDS011;21260;34.984;32.490;2022-08-21T15:13:15;11.63;;;4.57;;
35074;SDS011;21260;34.984;32.490;2022-08-21T15:15:43;6.32;;;3.80;;
35074;SDS011;21260;34.984;32.490;2022-08-21T15:18:13;5.57;;;4.03;;
35074;SDS011;21260;34.984;32.490;2022-08-21T15:20:39;5.47;;;4.35;;
35074;SDS011;21260;34.984;32.490;2022-08-21T15:23:07;7.45;;;4.00;;
35074;SDS011;21260;34.984;32.490;2022-08-21T15:25:34;5.95;;;4.22;;
35074;SDS011;21260;34.984;32.490;2022-08-21T15:28:02;11.13;;;4.93;;
35074;SDS011;21260;34.984;32.490;2022-08-21T15:30:29;9.75;;;4.63;;
35074;SDS011;21260;34.984;32.490;2022-08-21T15:32:57;4.72;;;3.88;;
35074;SDS011;21260;34.984;32.490;2022-08-21T15:35:23;8.45;;;4.35;;
35074;SDS011;21260;34.984;32.490;2022-08-21T15:37:52;13.43;;;4.95;;
35074;SDS011;21260;34.984;32.490;2022-08-21T15:40:18;7.82;;;4.50;;
35074;SDS011;21260;34.984;32.490;2022-08-21T15:42:44;7.63;;;4.97;;
35074;SDS011;21260;34.984;32.490;2022-08-21T15:45:12;11.82;;;5.07;;
35074;SDS011;21260;34.984;32.490;2022-08-21T15:47:42;7.75;;;4.40;;
35074;SDS011;21260;34.984;32.490;2022-08-21T15:50:11;7.50;;;4.57;;
35074;SDS011;21260;34.984;32.490;2022-08-21T15:52:39;7.55;;;4.78;;
35074;SDS011;21260;34.984;32.490;2022-08-21T15:55:06;6.90;;;4.18;;
35074;SDS011;21260;34.984;32.490;2022-08-21T15:57:34;7.63;;;4.57;;
35074;SDS011;21260;34.984;32.490;2022-08-21T16:00:11;7.18;;;4.57;;
35074;SDS011;21260;34.984;32.490;2022-08-21T16:02:42;9.50;;;5.10;;
35074;SDS011;21260;34.984;32.490;2022-08-21T16:05:22;12.73;;;5.50;;
35074;SDS011;21260;34.984;32.490;2022-08-21T16:07:50;12.07;;;4.97;;
35074;SDS011;21260;34.984;32.490;2022-08-21T16:10:18;10.20;;;5.43;;
35074;SDS011;21260;34.984;32.490;2022-08-21T16:12:49;10.00;;;5.80;;
35074;SDS011;21260;34.984;32.490;2022-08-21T16:15:27;9.65;;;5.25;;
35074;SDS011;21260;34.984;32.490;2022-08-21T16:17:55;9.73;;;5.60;;
35074;SDS011;21260;34.984;32.490;2022-08-21T16:20:24;11.25;;;5.50;;
35074;SDS011;21260;34.984;32.490;2022-08-21T16:22:55;11.35;;;5.65;;
35074;SDS011;21260;34.984;32.490;2022-08-21T16:25:22;7.60;;;5.07;;
35074;SDS011;21260;34.984;32.490;2022-08-21T16:27:54;12.38;;;5.50;;
35074;SDS011;21260;34.984;32.490;2022-08-21T16:30:25;9.63;;;5.72;;
35074;SDS011;21260;34.984;32.490;2022-08-21T16:32:59;13.52;;;6.60;;
35074;SDS011;21260;34.984;32.490;2022-08-21T16:35:27;12.55;;;6.40;;
35074;SDS011;21260;34.984;32.490;2022-08-21T16:37:55;12.45;;;6.22;;
35074;SDS011;21260;34.984;32.490;2022-08-21T16:40:22;9.80;;;5.93;;